Time;durP1;ratioP1;P1;durP2;ratioP2;P2;SDS_P1;SDS_P2;PMS_P1;PMS_P2;Temp;Humidity;BMP_temperature;BMP_pressure;BME280_temperature;BME280_humidity;BME280_pressure;Samples;Min_cycle;Max_cycle;Signal;HPM_P1;HPM_P2
2021/08/19 00:00:58;;;;;;;21.68;11.53;;;;;;;;;;1893352;76;21012;-49
2021/08/19 00:03:27;;;;;;;20.17;10.85;;;;;;;;;;1893516;76;21101;-46
2021/08/19 00:05:55;;;;;;;19.85;10.80;;;;;;;;;;1893377;76;21000;-46
2021/08/19 00:08:24;;;;;;;19.70;11.22;;;;;;;;;;1893381;76;21020;-47
2021/08/19 00:10:53;;;;;;;22.50;10.85;;;;;;;;;;1893382;76;21287;-47
2021/08/19 00:13:22;;;;;;;20.15;10.58;;;;;;;;;;1893446;76;21000;-44
2021/08/19 00:15:50;;;;;;;24.35;11.28;;;;;;;;;;1893387;76;21074;-47
2021/08/19 00:18:19;;;;;;;22.85;10.72;;;;;;;;;;1893348;76;21016;-48
2021/08/19 00:20:49;;;;;;;21.70;11.40;;;;;;;;;;1893365;76;21016;-48
2021/08/19 00:23:17;;;;;;;18.20;10.25;;;;;;;;;;1893445;76;21017;-47
2021/08/19 00:25:46;;;;;;;20.52;10.85;;;;;;;;;;1893372;76;21043;-48
2021/08/19 00:28:15;;;;;;;18.00;10.08;;;;;;;;;;1893379;76;21009;-47
2021/08/19 00:30:43;;;;;;;19.50;10.82;;;;;;;;;;1893365;76;21133;-46
2021/08/19 00:33:12;;;;;;;20.02;11.50;;;;;;;;;;1893319;76;21032;-48
2021/08/19 00:35:41;;;;;;;18.77;11.50;;;;;;;;;;1893454;76;21054;-48
2021/08/19 00:38:10;;;;;;;19.75;10.98;;;;;;;;;;1893406;76;21020;-46
2021/08/19 00:40:39;;;;;;;18.98;11.40;;;;;;;;;;1893333;76;20976;-45
2021/08/19 00:43:08;;;;;;;17.80;9.58;;;;;;;;;;1893368;76;21008;-46
2021/08/19 00:45:37;;;;;;;20.60;10.48;;;;;;;;;;1893328;76;21070;-47
2021/08/19 00:48:06;;;;;;;19.45;10.98;;;;;;;;;;1893464;76;21070;-47
2021/08/19 00:50:35;;;;;;;18.62;9.90;;;;;;;;;;1893358;76;21044;-46
2021/08/19 00:53:03;;;;;;;18.55;10.65;;;;;;;;;;1893305;76;21133;-45
2021/08/19 00:55:32;;;;;;;22.67;10.58;;;;;;;;;;1893475;76;20996;-47
2021/08/19 00:58:01;;;;;;;21.35;11.97;;;;;;;;;;1890963;74;21043;-46
2021/08/19 01:00:30;;;;;;;16.48;9.55;;;;;;;;;;1886831;76;21000;-47
2021/08/19 01:03:01;;;;;;;17.20;9.50;;;;;;;;;;1886961;76;21024;-48
2021/08/19 01:05:31;;;;;;;22.30;10.40;;;;;;;;;;1886891;76;21044;-49
2021/08/19 01:08:01;;;;;;;18.02;10.40;;;;;;;;;;1886598;76;21499;-47
2021/08/19 01:10:30;;;;;;;16.10;9.85;;;;;;;;;;1886808;76;21020;-47
2021/08/19 01:12:59;;;;;;;16.80;10.63;;;;;;;;;;1887040;76;21016;-47
2021/08/19 01:15:28;;;;;;;19.05;11.03;;;;;;;;;;1886844;76;21174;-47
2021/08/19 01:17:58;;;;;;;19.48;10.13;;;;;;;;;;1886881;76;21013;-47
2021/08/19 01:20:28;;;;;;;23.30;11.12;;;;;;;;;;1886775;76;21524;-48
2021/08/19 01:22:57;;;;;;;16.23;10.50;;;;;;;;;;1886957;76;21442;-47
2021/08/19 01:25:26;;;;;;;22.37;11.10;;;;;;;;;;1886832;76;21004;-48
2021/08/19 01:27:55;;;;;;;18.60;9.55;;;;;;;;;;1886965;76;20984;-46
2021/08/19 01:30:25;;;;;;;19.98;10.38;;;;;;;;;;1886959;76;21024;-47
2021/08/19 01:32:54;;;;;;;23.05;11.18;;;;;;;;;;1886929;76;21063;-46
2021/08/19 01:35:24;;;;;;;20.15;11.48;;;;;;;;;;1886966;76;21009;-47
2021/08/19 01:37:53;;;;;;;19.87;10.30;;;;;;;;;;1886499;76;21111;-45
2021/08/19 01:40:22;;;;;;;19.82;11.25;;;;;;;;;;1886910;76;21082;-44
2021/08/19 01:42:50;;;;;;;18.42;10.80;;;;;;;;;;1886921;76;21000;-47
2021/08/19 01:45:19;;;;;;;18.17;9.85;;;;;;;;;;1886813;76;21020;-47
2021/08/19 01:47:48;;;;;;;18.65;11.12;;;;;;;;;;1887064;76;21004;-48
2021/08/19 01:50:17;;;;;;;20.30;10.65;;;;;;;;;;1886845;76;21005;-47
2021/08/19 01:52:46;;;;;;;19.45;11.95;;;;;;;;;;1886925;76;21004;-48
2021/08/19 01:55:15;;;;;;;20.35;11.40;;;;;;;;;;1886956;76;21001;-48
2021/08/19 01:57:44;;;;;;;21.73;12.23;;;;;;;;;;1887002;74;21056;-48
2021/08/19 02:00:12;;;;;;;24.77;11.83;;;;;;;;;;1886892;76;21005;-48
2021/08/19 02:02:41;;;;;;;20.12;10.40;;;;;;;;;;1886875;76;21001;-46
2021/08/19 02:05:10;;;;;;;22.73;9.60;;;;;;;;;;1887030;76;21075;-46
2021/08/19 02:07:38;;;;;;;17.57;10.53;;;;;;;;;;1887040;76;20984;-46
2021/08/19 02:10:08;;;;;;;20.52;10.93;;;;;;;;;;1887065;76;21012;-48
2021/08/19 02:12:36;;;;;;;22.45;11.40;;;;;;;;;;1886902;76;21133;-47
2021/08/19 02:15:05;;;;;;;15.85;9.63;;;;;;;;;;1886912;76;21000;-47
2021/08/19 02:17:34;;;;;;;24.85;11.97;;;;;;;;;;1886872;76;21008;-48
2021/08/19 02:20:03;;;;;;;17.05;10.43;;;;;;;;;;1886896;76;21013;-45
2021/08/19 02:22:32;;;;;;;20.25;9.33;;;;;;;;;;1886857;76;21074;-47
2021/08/19 02:25:01;;;;;;;21.77;11.35;;;;;;;;;;1886743;76;21021;-46
2021/08/19 02:27:29;;;;;;;17.95;10.18;;;;;;;;;;1886881;76;21079;-45
2021/08/19 02:29:58;;;;;;;23.35;11.12;;;;;;;;;;1886945;76;21009;-47
2021/08/19 02:32:27;;;;;;;18.27;9.55;;;;;;;;;;1886785;76;21070;-47
2021/08/19 02:34:57;;;;;;;16.57;10.18;;;;;;;;;;1887045;76;21016;-49
2021/08/19 02:37:25;;;;;;;21.65;12.60;;;;;;;;;;1886989;76;21122;-45
2021/08/19 02:39:54;;;;;;;21.35;10.43;;;;;;;;;;1887119;76;21087;-47
2021/08/19 02:42:23;;;;;;;19.48;10.50;;;;;;;;;;1887046;76;21106;-47
2021/08/19 02:44:52;;;;;;;17.85;9.48;;;;;;;;;;1887024;76;21017;-47
2021/08/19 02:47:21;;;;;;;19.15;10.08;;;;;;;;;;1887075;76;21024;-46
2021/08/19 02:49:49;;;;;;;18.07;11.22;;;;;;;;;;1887100;76;21021;-45
2021/08/19 02:52:18;;;;;;;23.85;12.23;;;;;;;;;;1887024;76;21001;-45
2021/08/19 02:54:47;;;;;;;22.27;11.65;;;;;;;;;;1887095;76;21017;-49
2021/08/19 02:57:15;;;;;;;19.40;10.63;;;;;;;;;;1887014;76;21024;-44
2021/08/19 02:59:45;;;;;;;22.87;11.85;;;;;;;;;;1887023;76;21076;-46
2021/08/19 03:02:13;;;;;;;19.62;11.83;;;;;;;;;;1886933;76;21310;-44
2021/08/19 03:04:42;;;;;;;18.55;10.98;;;;;;;;;;1887111;76;21086;-47
2021/08/19 03:07:12;;;;;;;19.80;10.58;;;;;;;;;;1887054;76;21021;-44
2021/08/19 03:09:41;;;;;;;19.52;11.08;;;;;;;;;;1887012;76;21067;-46
2021/08/19 03:12:10;;;;;;;17.98;11.08;;;;;;;;;;1886933;76;20997;-48
2021/08/19 03:14:39;;;;;;;23.55;12.98;;;;;;;;;;1887074;76;21029;-48
2021/08/19 03:17:08;;;;;;;18.77;9.95;;;;;;;;;;1887077;76;21001;-47
2021/08/19 03:19:37;;;;;;;20.08;10.60;;;;;;;;;;1887061;76;21087;-47
2021/08/19 03:22:07;;;;;;;20.23;10.40;;;;;;;;;;1887039;76;21015;-46
2021/08/19 03:24:36;;;;;;;20.20;9.75;;;;;;;;;;1886969;76;21106;-47
2021/08/19 03:27:04;;;;;;;13.93;8.83;;;;;;;;;;1887077;76;21044;-47
2021/08/19 03:29:34;;;;;;;15.45;9.18;;;;;;;;;;1887087;76;21071;-44
2021/08/19 03:32:03;;;;;;;18.45;10.23;;;;;;;;;;1887021;76;21013;-45
2021/08/19 03:34:32;;;;;;;14.75;8.88;;;;;;;;;;1887135;76;21083;-45
2021/08/19 03:37:01;;;;;;;17.37;9.55;;;;;;;;;;1886972;76;20984;-44
2021/08/19 03:39:30;;;;;;;16.45;9.43;;;;;;;;;;1887260;76;21153;-45
2021/08/19 03:41:59;;;;;;;15.28;9.93;;;;;;;;;;1887031;76;21017;-48
2021/08/19 03:44:27;;;;;;;13.38;8.45;;;;;;;;;;1887094;76;21017;-44
2021/08/19 03:46:56;;;;;;;17.30;7.87;;;;;;;;;;1886938;76;21102;-47
2021/08/19 03:49:25;;;;;;;14.70;7.65;;;;;;;;;;1887080;76;21130;-48
2021/08/19 03:51:54;;;;;;;17.05;6.60;;;;;;;;;;1887027;76;21068;-44
2021/08/19 03:54:23;;;;;;;17.87;6.90;;;;;;;;;;1887010;76;21002;-47
2021/08/19 03:56:52;;;;;;;11.65;4.65;;;;;;;;;;1886965;76;20997;-45
2021/08/19 03:59:21;;;;;;;7.60;3.72;;;;;;;;;;1888790;74;21094;-45
2021/08/19 04:01:50;;;;;;;8.83;3.65;;;;;;;;;;1893512;76;21005;-44
2021/08/19 04:04:19;;;;;;;8.00;3.40;;;;;;;;;;1893464;76;21079;-44
2021/08/19 04:06:48;;;;;;;7.35;3.72;;;;;;;;;;1893470;76;21017;-44
2021/08/19 04:09:16;;;;;;;6.55;3.33;;;;;;;;;;1893420;76;21090;-44
2021/08/19 04:11:45;;;;;;;8.33;4.17;;;;;;;;;;1893487;76;21005;-47
2021/08/19 04:14:14;;;;;;;10.45;5.87;;;;;;;;;;1893524;76;21012;-46
2021/08/19 04:16:42;;;;;;;7.20;4.03;;;;;;;;;;1893396;76;20980;-47
2021/08/19 04:19:11;;;;;;;6.42;4.30;;;;;;;;;;1893407;76;21032;-45
2021/08/19 04:21:40;;;;;;;6.50;3.98;;;;;;;;;;1893509;76;21016;-48
2021/08/19 04:24:09;;;;;;;9.45;3.83;;;;;;;;;;1893481;76;21024;-45
2021/08/19 04:26:38;;;;;;;7.30;4.17;;;;;;;;;;1893485;76;21001;-47
2021/08/19 04:29:07;;;;;;;9.15;4.58;;;;;;;;;;1893467;76;21082;-45
2021/08/19 04:31:35;;;;;;;13.48;5.10;;;;;;;;;;1893305;76;21069;-46
2021/08/19 04:34:04;;;;;;;7.00;4.10;;;;;;;;;;1893448;76;21315;-45
2021/08/19 04:36:33;;;;;;;7.40;4.33;;;;;;;;;;1893396;76;21012;-47
2021/08/19 04:39:02;;;;;;;8.55;5.00;;;;;;;;;;1893486;76;21012;-46
2021/08/19 04:41:31;;;;;;;11.05;5.85;;;;;;;;;;1893462;76;21078;-43
2021/08/19 04:43:59;;;;;;;11.40;5.40;;;;;;;;;;1893439;76;21082;-46
2021/08/19 04:46:28;;;;;;;9.40;5.37;;;;;;;;;;1893527;76;21047;-44
2021/08/19 04:48:59;;;;;;;12.28;5.08;;;;;;;;;;1893529;76;21100;-45
2021/08/19 04:51:27;;;;;;;11.68;5.00;;;;;;;;;;1893476;76;21082;-45
2021/08/19 04:53:57;;;;;;;10.20;4.95;;;;;;;;;;1893405;76;20996;-45
2021/08/19 04:56:29;;;;;;;7.87;4.85;;;;;;;;;;1893433;76;21056;-46
2021/08/19 04:58:57;;;;;;;9.25;4.62;;;;;;;;;;1893423;76;21497;-47
2021/08/19 05:01:26;;;;;;;8.00;4.80;;;;;;;;;;1887203;76;21052;-47
2021/08/19 05:03:55;;;;;;;14.20;7.40;;;;;;;;;;1886930;76;21051;-46
2021/08/19 05:06:24;;;;;;;9.18;5.70;;;;;;;;;;1886744;76;21062;-44
2021/08/19 05:08:53;;;;;;;12.88;5.40;;;;;;;;;;1886874;76;20996;-45
2021/08/19 05:11:25;;;;;;;9.00;5.30;;;;;;;;;;1886805;76;21020;-47
2021/08/19 05:13:57;;;;;;;10.93;5.50;;;;;;;;;;1886804;76;21020;-44
2021/08/19 05:16:24;;;;;;;8.33;5.37;;;;;;;;;;1886668;76;21031;-44
2021/08/19 05:18:53;;;;;;;8.28;4.78;;;;;;;;;;1886810;76;21008;-46
2021/08/19 05:21:22;;;;;;;10.03;4.90;;;;;;;;;;1886780;76;21000;-46
2021/08/19 05:23:51;;;;;;;11.38;6.20;;;;;;;;;;1886891;76;21032;-47
2021/08/19 05:26:20;;;;;;;13.22;5.25;;;;;;;;;;1886873;76;21017;-44
2021/08/19 05:28:49;;;;;;;7.20;5.33;;;;;;;;;;1886763;76;21083;-45
2021/08/19 05:31:18;;;;;;;11.10;5.70;;;;;;;;;;1886812;76;21087;-45
2021/08/19 05:33:47;;;;;;;10.20;5.90;;;;;;;;;;1886806;76;21001;-48
2021/08/19 05:36:16;;;;;;;12.15;6.15;;;;;;;;;;1886827;76;21008;-45
2021/08/19 05:38:45;;;;;;;11.68;6.15;;;;;;;;;;1886981;76;21004;-46
2021/08/19 05:41:14;;;;;;;8.95;5.00;;;;;;;;;;1886768;76;21043;-45
2021/08/19 05:43:43;;;;;;;8.90;5.40;;;;;;;;;;1886913;76;21091;-44
2021/08/19 05:46:12;;;;;;;12.30;6.00;;;;;;;;;;1886901;76;21020;-46
2021/08/19 05:48:41;;;;;;;11.70;5.95;;;;;;;;;;1887029;76;20997;-45
2021/08/19 05:51:11;;;;;;;17.95;6.35;;;;;;;;;;1886883;76;21071;-45
2021/08/19 05:53:41;;;;;;;11.08;6.30;;;;;;;;;;1886837;76;21040;-46
2021/08/19 05:56:10;;;;;;;13.22;6.45;;;;;;;;;;1886901;76;21012;-45
2021/08/19 05:58:39;;;;;;;16.23;6.00;;;;;;;;;;1886942;76;21021;-43
2021/08/19 06:01:08;;;;;;;11.90;7.70;;;;;;;;;;1886869;75;21040;-46
2021/08/19 06:03:37;;;;;;;10.30;6.10;;;;;;;;;;1886899;76;21082;-47
2021/08/19 06:06:06;;;;;;;12.00;7.00;;;;;;;;;;1886949;76;21024;-45
2021/08/19 06:08:35;;;;;;;15.72;7.37;;;;;;;;;;1886869;76;21059;-46
2021/08/19 06:11:04;;;;;;;12.88;6.58;;;;;;;;;;1886881;76;21078;-46
2021/08/19 06:13:33;;;;;;;14.23;6.30;;;;;;;;;;1886988;76;21043;-45
2021/08/19 06:16:02;;;;;;;11.95;6.65;;;;;;;;;;1887007;76;21010;-46
2021/08/19 06:18:30;;;;;;;10.55;6.78;;;;;;;;;;1886897;76;21013;-47
2021/08/19 06:20:59;;;;;;;11.70;6.60;;;;;;;;;;1886836;76;21011;-44
2021/08/19 06:23:28;;;;;;;9.25;5.28;;;;;;;;;;1886879;76;21016;-48
2021/08/19 06:25:56;;;;;;;11.73;6.53;;;;;;;;;;1886973;76;21097;-45
2021/08/19 06:28:26;;;;;;;14.30;5.80;;;;;;;;;;1886900;76;21033;-48
2021/08/19 06:30:54;;;;;;;9.78;5.97;;;;;;;;;;1886847;76;21457;-48
2021/08/19 06:33:23;;;;;;;11.30;6.62;;;;;;;;;;1886969;76;21004;-48
2021/08/19 06:35:52;;;;;;;15.13;8.05;;;;;;;;;;1886835;76;20997;-46
2021/08/19 06:38:21;;;;;;;12.58;6.35;;;;;;;;;;1887009;76;21016;-45
2021/08/19 06:40:50;;;;;;;15.25;7.87;;;;;;;;;;1886892;76;20997;-47
2021/08/19 06:43:18;;;;;;;15.48;8.80;;;;;;;;;;1886815;76;21020;-45
2021/08/19 06:45:47;;;;;;;14.63;8.98;;;;;;;;;;1886814;76;21009;-48
2021/08/19 06:48:16;;;;;;;16.12;7.85;;;;;;;;;;1886730;76;21004;-48
2021/08/19 06:50:44;;;;;;;14.60;8.60;;;;;;;;;;1886735;76;21081;-44
2021/08/19 06:53:13;;;;;;;12.58;7.50;;;;;;;;;;1886695;76;21000;-46
2021/08/19 06:55:42;;;;;;;54.30;34.48;;;;;;;;;;1886796;76;20997;-44
2021/08/19 06:58:11;;;;;;;12.43;7.40;;;;;;;;;;1886845;76;20997;-44
2021/08/19 07:00:41;;;;;;;14.38;8.00;;;;;;;;;;1888353;76;21036;-48
2021/08/19 07:03:11;;;;;;;12.75;7.97;;;;;;;;;;1893354;76;20981;-45
2021/08/19 07:05:40;;;;;;;10.45;8.20;;;;;;;;;;1893444;76;21277;-45
2021/08/19 07:08:08;;;;;;;12.33;8.33;;;;;;;;;;1893465;76;21090;-47
2021/08/19 07:10:37;;;;;;;11.45;8.68;;;;;;;;;;1893589;76;21008;-47
2021/08/19 07:13:06;;;;;;;12.95;7.53;;;;;;;;;;1893370;76;21004;-46
2021/08/19 07:15:35;;;;;;;14.35;7.67;;;;;;;;;;1893531;76;21164;-46
2021/08/19 07:18:04;;;;;;;15.70;9.75;;;;;;;;;;1893491;76;21129;-45
2021/08/19 07:20:33;;;;;;;14.35;8.48;;;;;;;;;;1893581;76;21017;-45
2021/08/19 07:23:02;;;;;;;13.45;8.60;;;;;;;;;;1893540;76;21012;-47
2021/08/19 07:25:31;;;;;;;14.30;8.60;;;;;;;;;;1893504;76;21000;-48
2021/08/19 07:27:59;;;;;;;22.90;14.85;;;;;;;;;;1893555;76;21082;-46
2021/08/19 07:30:28;;;;;;;13.93;8.85;;;;;;;;;;1893410;76;21015;-48
2021/08/19 07:32:57;;;;;;;15.75;10.65;;;;;;;;;;1893374;76;21004;-44
2021/08/19 07:35:26;;;;;;;12.58;9.23;;;;;;;;;;1893406;76;21000;-46
2021/08/19 07:37:55;;;;;;;16.57;9.08;;;;;;;;;;1893472;76;21055;-45
2021/08/19 07:40:25;;;;;;;16.30;10.63;;;;;;;;;;1893372;76;20985;-47
2021/08/19 07:42:54;;;;;;;10.82;7.80;;;;;;;;;;1892917;76;21001;-47
2021/08/19 07:45:24;;;;;;;11.05;7.12;;;;;;;;;;1891948;76;21067;-49
2021/08/19 07:47:53;;;;;;;11.10;7.83;;;;;;;;;;1892941;76;21070;-49
2021/08/19 07:50:22;;;;;;;9.78;6.28;;;;;;;;;;1892994;76;21176;-48
2021/08/19 07:52:50;;;;;;;7.85;6.25;;;;;;;;;;1892625;76;21001;-46
2021/08/19 07:55:19;;;;;;;8.98;5.70;;;;;;;;;;1892776;76;21016;-49
2021/08/19 07:57:49;;;;;;;8.98;5.20;;;;;;;;;;1892937;76;21072;-49
2021/08/19 08:00:25;;;;;;;11.00;5.45;;;;;;;;;;1892628;76;21016;-48
2021/08/19 08:02:54;;;;;;;14.10;6.08;;;;;;;;;;1886623;76;21076;-47
2021/08/19 08:05:24;;;;;;;9.25;6.35;;;;;;;;;;1886250;76;21103;-46
2021/08/19 08:07:53;;;;;;;9.15;5.60;;;;;;;;;;1886349;76;21538;-48
2021/08/19 08:10:22;;;;;;;12.28;4.90;;;;;;;;;;1886375;76;21000;-50
2021/08/19 08:12:50;;;;;;;13.28;5.47;;;;;;;;;;1886252;76;21095;-49
2021/08/19 08:15:19;;;;;;;9.93;5.22;;;;;;;;;;1886174;76;21111;-45
2021/08/19 08:17:48;;;;;;;12.07;6.33;;;;;;;;;;1886417;76;21074;-48
2021/08/19 08:20:17;;;;;;;14.15;5.67;;;;;;;;;;1886314;76;21062;-49
2021/08/19 08:22:48;;;;;;;12.33;5.35;;;;;;;;;;1869128;76;21172;-49
2021/08/19 08:25:16;;;;;;;8.63;4.83;;;;;;;;;;1862320;77;22345;-46
2021/08/19 08:28:05;;;;;;;7.25;4.92;;;;;;;;;;1862581;77;21187;-48
2021/08/19 08:30:33;;;;;;;8.98;5.55;;;;;;;;;;1862101;77;21062;-49
2021/08/19 08:33:02;;;;;;;11.80;5.28;;;;;;;;;;1861372;77;21423;-48
2021/08/19 08:35:36;;;;;;;7.58;4.65;;;;;;;;;;1862402;77;21106;-48
2021/08/19 08:38:02;;;;;;;8.83;4.10;;;;;;;;;;1861774;77;21505;-48
2021/08/19 08:40:32;;;;;;;11.20;6.55;;;;;;;;;;1862365;76;21094;-46
2021/08/19 08:43:01;;;;;;;9.35;5.00;;;;;;;;;;1862501;77;21105;-47
2021/08/19 08:45:34;;;;;;;12.25;5.28;;;;;;;;;;1862303;77;21097;-48
2021/08/19 08:48:00;;;;;;;11.28;4.58;;;;;;;;;;1862033;77;21528;-47
2021/08/19 08:50:29;;;;;;;9.90;5.15;;;;;;;;;;1862538;77;21160;-48
2021/08/19 08:52:58;;;;;;;8.80;4.80;;;;;;;;;;1862927;77;21120;-46
2021/08/19 08:55:27;;;;;;;7.10;4.33;;;;;;;;;;1863158;77;21034;-48
2021/08/19 08:57:56;;;;;;;11.15;5.92;;;;;;;;;;1863230;77;21098;-49
2021/08/19 09:00:25;;;;;;;8.73;4.95;;;;;;;;;;1863117;77;21038;-50
2021/08/19 09:02:54;;;;;;;10.08;4.35;;;;;;;;;;1880943;74;21061;-47
2021/08/19 09:05:24;;;;;;;11.05;4.83;;;;;;;;;;1886912;76;21041;-48
2021/08/19 09:07:54;;;;;;;12.10;5.30;;;;;;;;;;1886991;76;21530;-46
2021/08/19 09:10:24;;;;;;;13.03;7.25;;;;;;;;;;1886933;75;21037;-48
2021/08/19 09:12:53;;;;;;;10.68;6.12;;;;;;;;;;1886975;76;21018;-47
2021/08/19 09:15:23;;;;;;;7.65;4.72;;;;;;;;;;1886965;76;21099;-48
2021/08/19 09:17:52;;;;;;;9.73;5.50;;;;;;;;;;1887031;76;21471;-48
2021/08/19 09:20:22;;;;;;;8.40;5.42;;;;;;;;;;1886968;76;21056;-48
2021/08/19 09:22:52;;;;;;;11.57;5.10;;;;;;;;;;1886896;76;21105;-49
2021/08/19 09:25:34;;;;;;;10.05;5.75;;;;;;;;;;1887028;76;21005;-49
2021/08/19 09:28:09;;;;;;;15.40;6.50;;;;;;;;;;1886840;76;21009;-49
2021/08/19 09:30:38;;;;;;;7.75;5.45;;;;;;;;;;1886841;76;21033;-47
2021/08/19 09:33:08;;;;;;;9.93;6.17;;;;;;;;;;1886919;76;21041;-48
2021/08/19 09:35:37;;;;;;;9.00;5.35;;;;;;;;;;1886926;76;21096;-49
2021/08/19 09:38:07;;;;;;;10.82;5.85;;;;;;;;;;1886978;76;21072;-47
2021/08/19 09:40:36;;;;;;;8.50;5.00;;;;;;;;;;1885718;76;21163;-47
2021/08/19 09:43:05;;;;;;;16.82;5.95;;;;;;;;;;1886817;75;21061;-49
2021/08/19 09:45:35;;;;;;;8.43;5.28;;;;;;;;;;1886935;76;21041;-48
2021/08/19 09:48:07;;;;;;;9.65;6.03;;;;;;;;;;1885521;76;21025;-51
2021/08/19 09:50:36;;;;;;;8.28;5.90;;;;;;;;;;1886894;76;21526;-48
2021/08/19 09:53:16;;;;;;;9.00;5.83;;;;;;;;;;1886848;76;21045;-50
2021/08/19 09:55:44;;;;;;;6.85;4.83;;;;;;;;;;1886972;76;21029;-47
2021/08/19 09:58:14;;;;;;;13.43;5.78;;;;;;;;;;1887009;76;21029;-48
2021/08/19 10:00:43;;;;;;;8.10;5.45;;;;;;;;;;1884541;76;21027;-50
2021/08/19 10:03:14;;;;;;;9.10;5.35;;;;;;;;;;1886853;74;21064;-49
2021/08/19 10:05:42;;;;;;;7.65;4.50;;;;;;;;;;1886884;76;21099;-50
2021/08/19 10:08:13;;;;;;;8.68;5.87;;;;;;;;;;1887049;76;21045;-48
2021/08/19 10:10:43;;;;;;;8.48;5.45;;;;;;;;;;1886846;76;21522;-50
2021/08/19 10:13:12;;;;;;;9.45;5.78;;;;;;;;;;1886836;76;21025;-50
2021/08/19 10:15:44;;;;;;;11.18;6.45;;;;;;;;;;1886854;76;21029;-48
2021/08/19 10:18:15;;;;;;;14.00;5.87;;;;;;;;;;1886894;76;21045;-47
2021/08/19 10:20:44;;;;;;;8.55;5.12;;;;;;;;;;1886923;76;21060;-49
2021/08/19 10:23:13;;;;;;;10.63;4.50;;;;;;;;;;1886804;76;21029;-50
2021/08/19 10:25:43;;;;;;;13.83;6.45;;;;;;;;;;1886903;76;21021;-51
2021/08/19 10:28:16;;;;;;;7.30;5.00;;;;;;;;;;1886983;76;21095;-50
2021/08/19 10:30:51;;;;;;;10.05;4.65;;;;;;;;;;1886915;75;21148;-50
2021/08/19 10:33:39;;;;;;;10.20;4.50;;;;;;;;;;1886861;76;21491;-49
2021/08/19 10:36:12;;;;;;;9.10;5.53;;;;;;;;;;1886882;76;21032;-50
2021/08/19 10:38:41;;;;;;;7.67;4.83;;;;;;;;;;1886833;75;21091;-49
2021/08/19 10:41:28;;;;;;;6.78;4.33;;;;;;;;;;1886915;76;21115;-47
2021/08/19 10:44:01;;;;;;;13.35;6.08;;;;;;;;;;1886766;75;21093;-47
2021/08/19 10:46:31;;;;;;;9.28;5.58;;;;;;;;;;1878374;76;21104;-48
2021/08/19 10:48:59;;;;;;;8.98;5.22;;;;;;;;;;1886037;76;21033;-49
2021/08/19 10:51:29;;;;;;;11.73;5.50;;;;;;;;;;1886926;76;21029;-49
2021/08/19 10:53:58;;;;;;;14.38;6.10;;;;;;;;;;1886738;76;21178;-51
2021/08/19 10:56:41;;;;;;;10.45;6.05;;;;;;;;;;1886909;76;21146;-47
2021/08/19 10:59:30;;;;;;;9.98;5.72;;;;;;;;;;1886353;76;21111;-47
2021/08/19 11:01:59;;;;;;;20.43;8.95;;;;;;;;;;1886789;75;21005;-48
2021/08/19 11:04:33;;;;;;;13.53;5.60;;;;;;;;;;1893381;76;21053;-47
2021/08/19 11:07:05;;;;;;;12.75;6.97;;;;;;;;;;1884793;75;21029;-50
2021/08/19 11:09:32;;;;;;;8.18;5.67;;;;;;;;;;1893448;75;21565;-48
2021/08/19 11:12:05;;;;;;;12.98;6.40;;;;;;;;;;1893448;76;21106;-47
2021/08/19 11:14:34;;;;;;;9.55;6.35;;;;;;;;;;1893495;76;21021;-47
2021/08/19 11:17:02;;;;;;;8.93;6.42;;;;;;;;;;1893450;76;21116;-48
2021/08/19 11:19:32;;;;;;;9.78;6.47;;;;;;;;;;1893326;75;21131;-48
2021/08/19 11:22:01;;;;;;;11.40;7.17;;;;;;;;;;1893503;75;21029;-50
2021/08/19 11:24:31;;;;;;;12.90;6.92;;;;;;;;;;1893412;76;21444;-48
2021/08/19 11:27:01;;;;;;;10.98;7.22;;;;;;;;;;1893463;76;21049;-48
2021/08/19 11:29:35;;;;;;;9.10;6.42;;;;;;;;;;1893574;76;21517;-46
2021/08/19 11:32:11;;;;;;;11.63;7.08;;;;;;;;;;1893733;76;21460;-50
2021/08/19 11:34:41;;;;;;;9.95;6.50;;;;;;;;;;1892129;75;21092;-47
2021/08/19 11:37:10;;;;;;;13.38;7.40;;;;;;;;;;1892485;76;21096;-49
2021/08/19 11:39:39;;;;;;;18.65;7.58;;;;;;;;;;1893507;76;21025;-50
2021/08/19 11:42:08;;;;;;;12.85;7.58;;;;;;;;;;1893411;76;21053;-47
2021/08/19 11:44:36;;;;;;;10.13;7.05;;;;;;;;;;1893262;76;21084;-47
2021/08/19 11:47:11;;;;;;;12.43;6.70;;;;;;;;;;1893412;76;21041;-49
2021/08/19 11:49:37;;;;;;;11.70;7.15;;;;;;;;;;1893041;75;21570;-49
2021/08/19 11:52:12;;;;;;;8.78;6.10;;;;;;;;;;1893433;76;21424;-49
2021/08/19 11:54:46;;;;;;;18.25;13.35;;;;;;;;;;1893597;76;21483;-47
2021/08/19 11:57:25;;;;;;;12.68;6.35;;;;;;;;;;1893671;76;21041;-51
2021/08/19 12:00:01;;;;;;;9.58;5.10;;;;;;;;;;1892812;75;21033;-47
2021/08/19 12:02:31;;;;;;;7.97;5.78;;;;;;;;;;1892972;74;21405;-49
2021/08/19 12:05:04;;;;;;;11.83;6.60;;;;;;;;;;1887109;76;21222;-46
2021/08/19 12:07:33;;;;;;;12.37;6.05;;;;;;;;;;1885784;76;21005;-48
2021/08/19 12:10:02;;;;;;;13.60;7.70;;;;;;;;;;1887126;76;21009;-47
2021/08/19 12:12:35;;;;;;;10.18;6.62;;;;;;;;;;1886969;76;21107;-47
2021/08/19 12:15:01;;;;;;;10.40;6.50;;;;;;;;;;1886802;76;21472;-49
2021/08/19 12:17:30;;;;;;;19.87;8.73;;;;;;;;;;1887005;76;21144;-49
2021/08/19 12:20:20;;;;;;;17.98;8.80;;;;;;;;;;1887029;76;21057;-48
2021/08/19 12:22:45;;;;;;;18.05;9.28;;;;;;;;;;1886378;76;21049;-48
2021/08/19 12:25:15;;;;;;;15.05;8.88;;;;;;;;;;1887003;76;21098;-47
2021/08/19 12:27:44;;;;;;;15.23;8.73;;;;;;;;;;1885715;76;21033;-46
2021/08/19 12:30:13;;;;;;;15.28;8.10;;;;;;;;;;1887128;76;21021;-46
2021/08/19 12:32:45;;;;;;;8.68;5.58;;;;;;;;;;1887112;76;21037;-49
2021/08/19 12:35:13;;;;;;;9.08;6.83;;;;;;;;;;1887064;76;21491;-50
2021/08/19 12:37:43;;;;;;;15.58;7.33;;;;;;;;;;1887008;76;21037;-49
2021/08/19 12:40:13;;;;;;;10.93;6.65;;;;;;;;;;1885291;76;21041;-48
2021/08/19 12:42:43;;;;;;;13.53;9.03;;;;;;;;;;1886229;76;21060;-48
2021/08/19 12:45:16;;;;;;;11.28;6.53;;;;;;;;;;1887054;76;21472;-50
2021/08/19 12:47:46;;;;;;;10.55;6.90;;;;;;;;;;1885373;76;21102;-50
2021/08/19 12:50:16;;;;;;;7.92;5.87;;;;;;;;;;1887082;76;21115;-50
2021/08/19 12:52:46;;;;;;;14.43;6.62;;;;;;;;;;1885758;76;21064;-50
2021/08/19 12:55:16;;;;;;;10.80;6.17;;;;;;;;;;1886912;76;21029;-50
2021/08/19 12:57:46;;;;;;;11.05;6.83;;;;;;;;;;1887193;75;21021;-48
2021/08/19 13:00:19;;;;;;;13.18;6.65;;;;;;;;;;1887061;76;21033;-50
2021/08/19 13:02:48;;;;;;;11.48;6.58;;;;;;;;;;1886895;75;21096;-51
2021/08/19 13:05:18;;;;;;;8.95;6.33;;;;;;;;;;1863120;77;21050;-49
2021/08/19 13:07:47;;;;;;;9.30;5.92;;;;;;;;;;1863203;77;21038;-50
2021/08/19 13:10:16;;;;;;;10.43;6.58;;;;;;;;;;1863244;77;21030;-47
2021/08/19 13:12:44;;;;;;;8.70;6.20;;;;;;;;;;1863102;77;21034;-47
2021/08/19 13:15:14;;;;;;;12.28;6.05;;;;;;;;;;1863156;77;21038;-49
2021/08/19 13:17:43;;;;;;;9.28;5.55;;;;;;;;;;1863217;77;21030;-49
2021/08/19 13:20:12;;;;;;;17.57;8.83;;;;;;;;;;1863021;77;21104;-49
2021/08/19 13:22:41;;;;;;;9.90;5.95;;;;;;;;;;1862925;76;21140;-50
2021/08/19 13:25:10;;;;;;;14.20;7.72;;;;;;;;;;1863020;76;21059;-48
2021/08/19 13:27:39;;;;;;;14.87;6.55;;;;;;;;;;1863177;77;21042;-49
2021/08/19 13:30:08;;;;;;;11.05;5.72;;;;;;;;;;1863161;76;21059;-50
2021/08/19 13:32:37;;;;;;;10.75;5.37;;;;;;;;;;1863101;77;21058;-50
2021/08/19 13:35:06;;;;;;;11.65;6.03;;;;;;;;;;1863092;77;21129;-48
2021/08/19 13:37:35;;;;;;;12.47;6.37;;;;;;;;;;1863263;77;21046;-49
2021/08/19 13:40:04;;;;;;;14.87;7.05;;;;;;;;;;1863262;76;21109;-48
2021/08/19 13:42:32;;;;;;;14.68;6.83;;;;;;;;;;1863266;76;21051;-47
2021/08/19 13:45:01;;;;;;;13.43;6.67;;;;;;;;;;1863105;77;21145;-48
2021/08/19 13:47:30;;;;;;;11.83;6.70;;;;;;;;;;1863141;77;21055;-50
2021/08/19 13:49:59;;;;;;;11.93;7.20;;;;;;;;;;1863131;77;21062;-47
2021/08/19 13:52:27;;;;;;;10.93;7.30;;;;;;;;;;1863196;77;21094;-49
2021/08/19 13:54:56;;;;;;;13.22;7.30;;;;;;;;;;1863109;77;21062;-48
2021/08/19 13:57:25;;;;;;;11.85;6.45;;;;;;;;;;1863153;77;21051;-47
2021/08/19 13:59:54;;;;;;;10.32;6.50;;;;;;;;;;1863116;77;21038;-46
2021/08/19 14:02:23;;;;;;;10.10;6.65;;;;;;;;;;1863214;77;21120;-50
2021/08/19 14:04:51;;;;;;;9.03;5.95;;;;;;;;;;1877676;74;21041;-47
2021/08/19 14:07:20;;;;;;;7.92;5.30;;;;;;;;;;1886925;75;21037;-47
2021/08/19 14:09:49;;;;;;;7.85;5.35;;;;;;;;;;1886903;76;21037;-50
2021/08/19 14:12:17;;;;;;;6.90;4.42;;;;;;;;;;1886865;76;21150;-50
2021/08/19 14:14:46;;;;;;;6.75;4.12;;;;;;;;;;1886740;76;21111;-50
2021/08/19 14:17:15;;;;;;;5.78;4.15;;;;;;;;;;1887103;76;21013;-49
2021/08/19 14:19:43;;;;;;;7.35;5.03;;;;;;;;;;1886967;76;21041;-49
2021/08/19 14:22:12;;;;;;;6.50;4.35;;;;;;;;;;1887100;76;21122;-47
2021/08/19 14:24:41;;;;;;;9.10;4.75;;;;;;;;;;1886906;76;21018;-49
2021/08/19 14:27:10;;;;;;;5.45;4.22;;;;;;;;;;1887110;76;21061;-49
2021/08/19 14:29:39;;;;;;;7.72;4.10;;;;;;;;;;1886961;76;21123;-50
2021/08/19 14:32:08;;;;;;;5.12;3.70;;;;;;;;;;1886823;75;21096;-51
2021/08/19 14:34:36;;;;;;;5.78;3.20;;;;;;;;;;1886953;76;21013;-50
2021/08/19 14:37:07;;;;;;;6.37;3.85;;;;;;;;;;1886866;76;21112;-48
2021/08/19 14:39:36;;;;;;;8.53;4.42;;;;;;;;;;1886946;76;21033;-50
2021/08/19 14:42:05;;;;;;;4.60;2.77;;;;;;;;;;1886859;75;21102;-50
2021/08/19 14:44:34;;;;;;;4.58;2.50;;;;;;;;;;1886971;76;21131;-50